Time;durP1;ratioP1;P1;durP2;ratioP2;P2;SDS_P1;SDS_P2;PMS_P1;PMS_P2;Temp;Humidity;BMP_temperature;BMP_pressure;BME280_temperature;BME280_humidity;BME280_pressure;Samples;Min_cycle;Max_cycle;Signal;HPM_P1;HPM_P2
2024/03/18 00:01:49;;;;;;;21.57;20.17;;;5.40;75.50;;;;;;5055057;28;20219;-87
2024/03/18 00:04:15;;;;;;;18.40;17.10;;;5.30;75.10;;;;;;5056564;28;20230;-87
2024/03/18 00:06:40;;;;;;;19.13;17.77;;;5.30;75.40;;;;;;5056466;28;20180;-87
2024/03/18 00:09:07;;;;;;;19.93;18.40;;;5.30;75.50;;;;;;5056527;28;20736;-86
2024/03/18 00:11:32;;;;;;;19.27;17.97;;;5.30;74.90;;;;;;5038273;28;20214;-86
2024/03/18 00:13:58;;;;;;;19.33;18.03;;;5.30;75.00;;;;;;5056720;28;20172;-87
2024/03/18 00:16:23;;;;;;;19.20;18.00;;;5.30;74.80;;;;;;5056650;28;20640;-88
2024/03/18 00:18:49;;;;;;;19.10;17.80;;;5.30;75.00;;;;;;5056235;28;20639;-86
2024/03/18 00:21:14;;;;;;;19.13;17.73;;;5.30;74.70;;;;;;5056414;28;20603;-87
2024/03/18 00:23:40;;;;;;;18.87;17.57;;;5.30;75.00;;;;;;5056219;28;20695;-89
2024/03/18 00:26:05;;;;;;;19.20;17.90;;;5.30;75.10;;;;;;5038086;28;20195;-87
2024/03/18 00:28:32;;;;;;;19.23;17.60;;;5.20;74.90;;;;;;5055993;28;20181;-87
2024/03/18 00:30:57;;;;;;;18.70;17.43;;;5.30;74.80;;;;;;5055800;28;20202;-88
2024/03/18 00:33:24;;;;;;;19.20;17.90;;;5.30;75.00;;;;;;5056188;28;20651;-87
2024/03/18 00:35:58;;;;;;;18.97;17.63;;;5.30;75.20;;;;;;5037804;28;20178;-88
2024/03/18 00:38:24;;;;;;;19.77;18.13;;;5.20;75.40;;;;;;5038035;28;20210;-86
2024/03/18 00:40:56;;;;;;;18.47;17.17;;;5.20;75.30;;;;;;5055655;28;20171;-87
2024/03/18 00:43:22;;;;;;;18.73;17.53;;;5.20;75.10;;;;;;5055718;28;20270;-87
2024/03/18 00:45:49;;;;;;;18.57;17.00;;;5.20;75.20;;;;;;5038166;28;20213;-86
2024/03/18 00:48:15;;;;;;;19.33;17.93;;;5.20;75.00;;;;;;5055666;28;20195;-87
2024/03/18 00:50:41;;;;;;;17.97;16.77;;;5.20;75.00;;;;;;5055776;28;20203;-87
2024/03/18 00:53:07;;;;;;;19.50;17.90;;;5.20;75.60;;;;;;5055837;28;20603;-86
2024/03/18 00:55:33;;;;;;;19.77;18.27;;;5.10;75.60;;;;;;5055701;28;20175;-87
2024/03/18 00:57:59;;;;;;;18.80;17.57;;;5.10;75.50;;;;;;5037533;28;20556;-87
2024/03/18 01:00:25;;;;;;;19.10;17.90;;;5.00;75.30;;;;;;5037648;28;20180;-87
2024/03/18 01:02:50;;;;;;;19.47;17.73;;;5.00;75.20;;;;;;5055235;28;20202;-86
2024/03/18 01:05:16;;;;;;;18.97;17.50;;;5.00;75.60;;;;;;5055128;28;20191;-87
2024/03/18 01:07:43;;;;;;;18.43;17.03;;;5.00;75.30;;;;;;5055545;28;20648;-87
2024/03/18 01:10:09;;;;;;;30.67;28.70;;;5.00;75.50;;;;;;5038638;28;20204;-87
2024/03/18 01:12:35;;;;;;;37.50;35.07;;;5.00;75.60;;;;;;5053639;28;20204;-87
2024/03/18 01:15:01;;;;;;;37.53;35.13;;;5.00;75.80;;;;;;5036812;28;20175;-86
2024/03/18 01:17:27;;;;;;;40.00;37.40;;;4.90;75.60;;;;;;5054613;28;20185;-86
2024/03/18 01:19:52;;;;;;;38.90;36.20;;;4.90;75.60;;;;;;5036647;28;20265;-86
2024/03/18 01:22:18;;;;;;;39.23;36.43;;;4.90;75.90;;;;;;5036576;28;20297;-87
2024/03/18 01:24:44;;;;;;;38.87;36.17;;;4.80;76.00;;;;;;5054736;28;20206;-89
2024/03/18 01:27:09;;;;;;;35.17;32.93;;;4.80;76.00;;;;;;5036863;28;20198;-87
2024/03/18 01:29:35;;;;;;;36.30;33.63;;;4.80;76.00;;;;;;5054761;28;20233;-86
2024/03/18 01:32:00;;;;;;;37.10;34.43;;;4.80;76.40;;;;;;5036681;28;20286;-86
2024/03/18 01:34:26;;;;;;;38.90;35.97;;;4.80;76.50;;;;;;5036949;28;20265;-87
2024/03/18 01:36:52;;;;;;;36.20;33.57;;;4.80;76.30;;;;;;5054526;28;20178;-86
2024/03/18 01:39:19;;;;;;;35.93;33.57;;;4.80;76.10;;;;;;5037005;28;20269;-87
2024/03/18 01:41:46;;;;;;;37.13;34.73;;;4.80;76.60;;;;;;5054771;28;20197;-87
2024/03/18 01:44:11;;;;;;;37.87;35.37;;;4.70;76.30;;;;;;5054500;28;20256;-87
2024/03/18 01:46:37;;;;;;;39.57;36.97;;;4.70;76.20;;;;;;5036649;28;20174;-87
2024/03/18 01:49:02;;;;;;;36.90;34.37;;;4.70;76.40;;;;;;5054491;28;20203;-87
2024/03/18 01:51:29;;;;;;;38.93;36.40;;;4.70;76.80;;;;;;5054309;28;20270;-88
2024/03/18 01:54:14;;;;;;;37.87;35.37;;;4.60;76.60;;;;;;5054380;28;20203;-87
2024/03/18 01:56:40;;;;;;;38.70;36.03;;;4.60;76.50;;;;;;5036320;28;20171;-86
2024/03/18 01:59:06;;;;;;;36.40;34.00;;;4.60;76.80;;;;;;5036360;28;20182;-86
2024/03/18 02:01:31;;;;;;;37.33;34.83;;;4.60;77.10;;;;;;5036255;28;20679;-87
2024/03/18 02:04:07;;;;;;;38.13;35.63;;;4.60;76.70;;;;;;5054382;28;20178;-86
2024/03/18 02:06:32;;;;;;;37.43;35.03;;;4.60;76.80;;;;;;5054654;28;20187;-87
2024/03/18 02:08:58;;;;;;;36.00;33.60;;;4.60;77.00;;;;;;5036089;28;20216;-87
2024/03/18 02:11:23;;;;;;;36.17;33.77;;;4.50;76.90;;;;;;5053755;28;20246;-86
2024/03/18 02:13:49;;;;;;;34.53;32.33;;;4.50;77.00;;;;;;5054079;28;20210;-86
2024/03/18 02:16:15;;;;;;;36.20;33.90;;;4.50;77.30;;;;;;5053844;28;20202;-87
2024/03/18 02:18:40;;;;;;;37.23;34.53;;;4.50;77.30;;;;;;5035828;28;20189;-87
2024/03/18 02:21:06;;;;;;;35.97;33.63;;;4.40;77.40;;;;;;5035914;28;20181;-87
2024/03/18 02:23:31;;;;;;;34.53;31.90;;;4.40;77.40;;;;;;5035902;28;20179;-88
2024/03/18 02:25:57;;;;;;;34.20;32.00;;;4.40;77.80;;;;;;5035727;28;20754;-86
2024/03/18 02:28:22;;;;;;;34.00;31.90;;;4.30;77.60;;;;;;5053630;28;20669;-88
2024/03/18 02:30:49;;;;;;;32.40;30.40;;;4.30;77.70;;;;;;5053818;28;20200;-87
2024/03/18 02:33:14;;;;;;;14.83;13.93;;;4.30;77.90;;;;;;5035585;28;20200;-86
2024/03/18 02:35:40;;;;;;;14.97;13.80;;;4.20;78.40;;;;;;5035773;28;20182;-87
2024/03/18 02:38:05;;;;;;;15.67;14.47;;;4.20;78.40;;;;;;5035897;28;20182;-86
2024/03/18 02:40:31;;;;;;;14.27;13.47;;;4.10;78.60;;;;;;5035682;28;20187;-87
2024/03/18 02:42:56;;;;;;;15.00;13.83;;;4.10;78.80;;;;;;5035617;28;20418;-87
2024/03/18 02:45:22;;;;;;;14.47;13.47;;;4.00;78.60;;;;;;5035704;28;20277;-86
2024/03/18 02:47:48;;;;;;;14.40;13.20;;;4.00;79.10;;;;;;5053487;28;20171;-86
2024/03/18 02:50:15;;;;;;;14.87;13.53;;;4.00;79.00;;;;;;5053750;28;20704;-86
2024/03/18 02:52:41;;;;;;;14.87;13.77;;;4.00;78.80;;;;;;5053337;28;20184;-87
2024/03/18 02:55:07;;;;;;;14.30;13.23;;;4.00;78.90;;;;;;5035499;28;20168;-87
2024/03/18 02:57:33;;;;;;;14.87;13.80;;;4.00;78.80;;;;;;5053514;28;20198;-88
2024/03/18 02:59:59;;;;;;;15.03;14.03;;;4.00;78.60;;;;;;5053453;28;20168;-87
2024/03/18 03:02:25;;;;;;;14.90;13.80;;;4.10;78.80;;;;;;5053504;28;20188;-87
2024/03/18 03:04:51;;;;;;;14.63;13.60;;;4.00;78.60;;;;;;5035581;28;20184;-87
2024/03/18 03:07:16;;;;;;;14.50;13.50;;;4.10;78.60;;;;;;5035723;28;20172;-87
2024/03/18 03:09:43;;;;;;;14.23;13.33;;;4.10;78.50;;;;;;5053590;28;20240;-87
2024/03/18 03:12:11;;;;;;;14.80;13.90;;;4.10;78.60;;;;;;5053272;28;20327;-86
2024/03/18 03:14:37;;;;;;;14.80;13.67;;;4.10;78.50;;;;;;5035396;28;20179;-87
2024/03/18 03:17:03;;;;;;;14.87;13.87;;;4.10;78.50;;;;;;5035558;28;20173;-87
2024/03/18 03:19:28;;;;;;;15.63;14.43;;;4.10;78.60;;;;;;5035470;28;20172;-86
2024/03/18 03:21:54;;;;;;;14.93;13.83;;;4.10;78.70;;;;;;5035400;28;20191;-87
2024/03/18 03:24:19;;;;;;;15.17;14.27;;;4.00;78.70;;;;;;5053192;28;20182;-87
2024/03/18 03:26:46;;;;;;;15.53;14.43;;;4.00;78.70;;;;;;5035400;28;20178;-86
2024/03/18 03:29:11;;;;;;;14.63;13.63;;;4.00;78.80;;;;;;5035653;28;20353;-87
2024/03/18 03:31:37;;;;;;;15.77;14.57;;;4.00;78.90;;;;;;5053369;28;20337;-87
2024/03/18 03:34:02;;;;;;;15.07;14.03;;;4.00;78.90;;;;;;5035570;28;20222;-86
2024/03/18 03:36:29;;;;;;;14.80;13.87;;;4.00;78.90;;;;;;5054619;28;20226;-87
2024/03/18 03:38:54;;;;;;;14.90;13.70;;;4.00;78.90;;;;;;5057235;28;20636;-87
2024/03/18 03:41:20;;;;;;;14.87;13.87;;;3.90;78.90;;;;;;5039031;28;20239;-87
2024/03/18 03:43:48;;;;;;;29.17;27.30;;;3.90;79.10;;;;;;5056863;28;20547;-87
2024/03/18 03:46:13;;;;;;;28.70;26.80;;;3.90;79.20;;;;;;5056811;28;20577;-86
2024/03/18 03:48:39;;;;;;;28.20;26.43;;;3.90;79.30;;;;;;5039055;28;20220;-86
2024/03/18 03:51:05;;;;;;;27.73;25.93;;;3.90;79.60;;;;;;5038768;28;20200;-86
2024/03/18 03:53:30;;;;;;;28.07;26.07;;;3.80;79.30;;;;;;5038798;28;20194;-86
2024/03/18 03:55:56;;;;;;;26.83;25.03;;;3.80;79.50;;;;;;5038744;28;20271;-87
2024/03/18 03:58:23;;;;;;;26.40;24.70;;;3.80;79.70;;;;;;5038704;28;20180;-87
2024/03/18 04:00:49;;;;;;;26.20;24.60;;;3.80;79.80;;;;;;5056602;28;20262;-88
2024/03/18 04:03:17;;;;;;;26.33;24.63;;;3.80;79.90;;;;;;5038590;28;20193;-87
2024/03/18 04:05:43;;;;;;;26.63;24.93;;;3.80;79.80;;;;;;5038706;28;20214;-87
2024/03/18 04:08:09;;;;;;;25.70;23.97;;;3.70;79.90;;;;;;5056361;28;20177;-87
2024/03/18 04:10:34;;;;;;;28.40;26.60;;;3.80;80.00;;;;;;5056209;28;20195;-87
2024/03/18 04:13:00;;;;;;;27.20;25.50;;;3.80;79.90;;;;;;5038148;28;20210;-87
2024/03/18 04:15:27;;;;;;;26.63;24.73;;;3.70;80.00;;;;;;5056334;28;20659;-87
2024/03/18 04:17:54;;;;;;;27.37;25.53;;;3.70;80.10;;;;;;5038301;28;20185;-86
2024/03/18 04:20:21;;;;;;;25.57;23.87;;;3.70;80.10;;;;;;5038428;28;20231;-88
2024/03/18 04:22:48;;;;;;;26.03;24.27;;;3.70;80.10;;;;;;5056171;28;20192;-86
2024/03/18 04:25:14;;;;;;;27.07;25.30;;;3.70;80.10;;;;;;5038274;28;20235;-87
2024/03/18 04:27:41;;;;;;;24.93;23.30;;;3.70;80.00;;;;;;5056095;28;20168;-87
2024/03/18 04:30:12;;;;;;;26.23;24.50;;;3.70;80.20;;;;;;5056033;28;20225;-87
2024/03/18 04:32:38;;;;;;;25.67;23.97;;;3.70;80.40;;;;;;5056120;28;20199;-86
2024/03/18 04:35:06;;;;;;;25.83;24.20;;;3.70;80.40;;;;;;5055720;28;20652;-86
2024/03/18 04:37:34;;;;;;;26.60;24.93;;;3.70;80.70;;;;;;5037890;28;20177;-87
2024/03/18 04:40:06;;;;;;;26.27;24.63;;;3.60;80.40;;;;;;5037869;28;20209;-87
2024/03/18 04:42:32;;;;;;;26.07;24.27;;;3.70;80.60;;;;;;5037759;28;20192;-87
2024/03/18 04:44:58;;;;;;;25.30;23.70;;;3.60;80.70;;;;;;5056320;28;20177;-87
2024/03/18 04:47:26;;;;;;;27.27;25.37;;;3.60;80.80;;;;;;5036773;28;20683;-86
2024/03/18 04:49:51;;;;;;;25.73;23.93;;;3.60;80.70;;;;;;5055451;28;20201;-86
2024/03/18 04:52:18;;;;;;;26.70;25.10;;;3.60;80.70;;;;;;5055631;28;20197;-86
2024/03/18 04:54:43;;;;;;;25.03;23.53;;;3.60;80.60;;;;;;5055642;28;20208;-86
2024/03/18 04:57:09;;;;;;;27.63;25.83;;;3.60;80.90;;;;;;5037526;28;20547;-86
2024/03/18 04:59:36;;;;;;;26.60;25.00;;;3.60;80.80;;;;;;5055672;28;20198;-87
2024/03/18 05:02:01;;;;;;;27.77;25.87;;;3.60;80.70;;;;;;5055521;28;20189;-88
2024/03/18 05:04:27;;;;;;;14.50;13.60;;;3.60;80.90;;;;;;5037733;28;20232;-87
2024/03/18 05:06:52;;;;;;;15.20;14.10;;;3.60;80.80;;;;;;5055469;28;20193;-87
2024/03/18 05:09:20;;;;;;;15.00;13.70;;;3.70;80.70;;;;;;5055945;28;20205;-87
2024/03/18 05:11:45;;;;;;;15.17;13.97;;;3.70;80.60;;;;;;5037117;28;20300;-87
2024/03/18 05:14:11;;;;;;;13.83;12.83;;;3.70;80.40;;;;;;5037528;28;20728;-87
2024/03/18 05:16:37;;;;;;;13.63;12.43;;;3.70;80.40;;;;;;5055375;28;20575;-87
2024/03/18 05:19:03;;;;;;;14.30;13.30;;;3.70;80.20;;;;;;5037608;28;20189;-87
2024/03/18 05:21:28;;;;;;;14.00;13.00;;;3.80;80.20;;;;;;5037202;28;20561;-87
2024/03/18 05:23:54;;;;;;;13.80;12.90;;;3.80;80.30;;;;;;5037619;28;20175;-87
2024/03/18 05:26:21;;;;;;;14.60;13.40;;;3.80;80.10;;;;;;5055103;28;20175;-88
2024/03/18 05:28:46;;;;;;;15.20;13.87;;;3.80;80.20;;;;;;5037124;28;20256;-88
2024/03/18 05:31:12;;;;;;;13.43;12.53;;;3.80;80.20;;;;;;5054977;28;20358;-87
2024/03/18 05:33:38;;;;;;;14.37;13.10;;;3.80;80.20;;;;;;5055203;28;20173;-88
2024/03/18 05:36:04;;;;;;;14.03;12.97;;;3.70;80.30;;;;;;5055196;28;20165;-88
2024/03/18 05:38:29;;;;;;;15.17;13.67;;;3.80;80.30;;;;;;5036985;28;20271;-88
2024/03/18 05:40:55;;;;;;;13.70;12.60;;;3.80;80.10;;;;;;5054563;28;20198;-87
2024/03/18 05:43:20;;;;;;;14.23;13.13;;;3.80;80.20;;;;;;5055054;28;20671;-87
2024/03/18 05:45:46;;;;;;;14.23;13.10;;;3.80;79.80;;;;;;5055068;28;20182;-87
2024/03/18 05:48:11;;;;;;;14.63;13.50;;;3.80;80.10;;;;;;5054515;28;20255;-88
2024/03/18 05:50:38;;;;;;;14.10;13.10;;;3.80;79.90;;;;;;5054782;28;20205;-87
2024/03/18 05:53:03;;;;;;;14.07;12.97;;;3.80;80.10;;;;;;5054529;28;20193;-87
2024/03/18 05:55:29;;;;;;;13.80;12.80;;;3.80;80.10;;;;;;5054541;28;20173;-87
2024/03/18 05:57:57;;;;;;;13.33;12.13;;;3.80;80.20;;;;;;5054790;28;20172;-88
2024/03/18 06:00:23;;;;;;;14.83;13.73;;;3.80;80.20;;;;;;5054304;28;20168;-87
2024/03/18 06:02:49;;;;;;;13.97;13.00;;;3.80;80.00;;;;;;5054474;28;20564;-87
2024/03/18 06:05:15;;;;;;;14.20;13.10;;;3.80;79.90;;;;;;5054356;28;20257;-88
2024/03/18 06:07:42;;;;;;;15.63;14.07;;;3.80;79.50;;;;;;5036243;28;20184;-88
2024/03/18 06:10:08;;;;;;;14.53;13.43;;;3.90;80.00;;;;;;5054197;28;20554;-87
2024/03/18 06:12:33;;;;;;;15.37;14.27;;;3.90;79.90;;;;;;5036317;28;20259;-87
2024/03/18 06:14:59;;;;;;;23.17;21.47;;;3.90;79.60;;;;;;5036595;28;20216;-87
2024/03/18 06:17:25;;;;;;;25.30;23.70;;;3.90;79.90;;;;;;5036377;28;20188;-87
2024/03/18 06:19:57;;;;;;;23.87;22.20;;;3.90;79.60;;;;;;5037450;28;20175;-88
2024/03/18 06:22:24;;;;;;;24.57;22.70;;;3.90;79.60;;;;;;5054466;28;20184;-86
2024/03/18 06:27:33;;;;;;;24.73;23.10;;;4.00;79.90;;;;;;5056028;28;20160;-88
2024/03/18 06:29:59;;;;;;;25.37;23.43;;;4.00;79.60;;;;;;5054750;28;20208;-87
2024/03/18 06:32:25;;;;;;;23.97;22.37;;;4.00;79.70;;;;;;5054619;28;20198;-89
2024/03/18 06:34:50;;;;;;;23.60;21.90;;;4.00;79.80;;;;;;5036715;28;20184;-87
2024/03/18 06:37:17;;;;;;;24.50;22.77;;;3.90;79.70;;;;;;5036606;28;20180;-87
2024/03/18 06:39:43;;;;;;;24.43;22.43;;;4.00;79.40;;;;;;5037547;28;20180;-89
2024/03/18 06:42:09;;;;;;;24.30;22.70;;;4.00;79.80;;;;;;5036726;28;20214;-88
2024/03/18 06:44:34;;;;;;;24.57;22.97;;;4.00;79.60;;;;;;5037721;28;20274;-88
2024/03/18 06:47:00;;;;;;;24.93;23.27;;;3.90;79.40;;;;;;5042024;28;20180;-88
2024/03/18 06:49:25;;;;;;;25.00;23.10;;;3.90;79.80;;;;;;5057070;28;20607;-87
2024/03/18 06:51:51;;;;;;;25.33;23.53;;;4.00;79.70;;;;;;5040833;28;20203;-87
2024/03/18 06:54:17;;;;;;;26.27;24.57;;;4.00;79.60;;;;;;5053769;28;20178;-87
2024/03/18 06:56:42;;;;;;;26.57;24.60;;;4.00;79.70;;;;;;5035922;28;20261;-86
2024/03/18 06:59:08;;;;;;;26.97;25.07;;;4.10;79.30;;;;;;5053757;28;20176;-87
2024/03/18 07:01:33;;;;;;;27.80;25.70;;;4.10;79.30;;;;;;5035965;28;20267;-86
2024/03/18 07:03:59;;;;;;;29.70;27.57;;;4.10;78.90;;;;;;5036156;28;20175;-88
2024/03/18 07:06:25;;;;;;;29.90;27.60;;;4.20;78.60;;;;;;5054164;28;20172;-87
2024/03/18 07:08:50;;;;;;;28.97;26.83;;;4.20;78.60;;;;;;5035872;28;20531;-86
2024/03/18 07:11:16;;;;;;;29.93;27.50;;;4.30;78.30;;;;;;5037385;28;20215;-87
2024/03/18 07:13:42;;;;;;;28.83;26.73;;;4.30;78.60;;;;;;5040218;28;20165;-87
2024/03/18 07:16:07;;;;;;;28.20;26.20;;;4.30;78.30;;;;;;5040624;28;20667;-87
2024/03/18 07:18:33;;;;;;;28.10;25.90;;;4.30;78.70;;;;;;5058312;28;20171;-88
2024/03/18 07:20:58;;;;;;;26.20;24.40;;;4.30;78.20;;;;;;5040036;28;20194;-86
2024/03/18 07:23:24;;;;;;;25.93;23.80;;;4.30;78.20;;;;;;5057801;28;20175;-87
2024/03/18 07:25:50;;;;;;;27.87;25.87;;;4.30;78.30;;;;;;5058042;28;20185;-87
2024/03/18 07:28:16;;;;;;;27.53;25.17;;;4.40;78.20;;;;;;5039738;28;20174;-86
2024/03/18 07:30:46;;;;;;;27.80;25.50;;;4.40;77.90;;;;;;5039860;28;20203;-86
2024/03/18 07:33:12;;;;;;;17.00;15.37;;;4.50;77.90;;;;;;5057604;28;20194;-88
2024/03/18 07:35:37;;;;;;;16.60;15.30;;;4.50;78.10;;;;;;5057668;28;20543;-88
2024/03/18 07:38:03;;;;;;;18.40;16.73;;;4.50;78.10;;;;;;5057764;28;20538;-87
2024/03/18 07:40:28;;;;;;;16.77;15.23;;;4.60;78.00;;;;;;5057967;28;20186;-86
2024/03/18 07:42:54;;;;;;;17.97;16.47;;;4.70;78.00;;;;;;5057989;28;20203;-86
2024/03/18 07:45:20;;;;;;;17.23;15.80;;;4.60;77.70;;;;;;5057862;28;20202;-87
2024/03/18 07:47:45;;;;;;;17.93;16.47;;;4.70;77.50;;;;;;5039470;28;20179;-88
2024/03/18 07:50:11;;;;;;;17.70;16.20;;;4.70;77.10;;;;;;5039272;28;20206;-87
2024/03/18 07:52:36;;;;;;;16.80;15.40;;;4.70;77.70;;;;;;5057096;28;20192;-88
2024/03/18 07:55:02;;;;;;;18.17;16.37;;;4.70;77.50;;;;;;5056991;28;20547;-88
2024/03/18 07:57:28;;;;;;;17.63;16.20;;;4.70;77.30;;;;;;5057348;28;20642;-86
2024/03/18 07:59:54;;;;;;;17.17;15.77;;;4.70;77.60;;;;;;5039227;28;20181;-87
2024/03/18 08:02:19;;;;;;;16.90;15.70;;;4.70;77.30;;;;;;5057045;28;20198;-87
2024/03/18 08:04:45;;;;;;;16.23;14.73;;;4.80;77.40;;;;;;5039190;28;20190;-88
2024/03/18 08:07:11;;;;;;;18.40;16.80;;;4.70;77.60;;;;;;5039396;28;20186;-88
2024/03/18 08:09:37;;;;;;;18.00;16.60;;;4.80;77.20;;;;;;5039412;28;20214;-87
2024/03/18 08:12:02;;;;;;;17.93;16.40;;;4.80;77.50;;;;;;5038840;28;20214;-88
2024/03/18 08:14:28;;;;;;;17.67;16.37;;;4.80;77.40;;;;;;5057127;28;20187;-88
2024/03/18 08:16:58;;;;;;;17.83;16.27;;;4.80;77.10;;;;;;5039464;28;20168;-87
2024/03/18 08:19:23;;;;;;;18.33;16.90;;;4.80;77.10;;;;;;5056739;28;20262;-87
2024/03/18 08:21:49;;;;;;;18.60;16.90;;;4.90;77.30;;;;;;5038719;28;20249;-87
2024/03/18 08:24:14;;;;;;;16.93;15.63;;;5.00;77.10;;;;;;5057150;28;20575;-87
2024/03/18 08:26:40;;;;;;;19.27;17.10;;;5.00;76.50;;;;;;5057336;28;20218;-87
2024/03/18 08:29:06;;;;;;;18.53;16.77;;;5.00;76.90;;;;;;5038949;28;20213;-88
2024/03/18 08:31:32;;;;;;;18.90;17.47;;;5.00;76.90;;;;;;5038701;28;20194;-87
2024/03/18 08:33:58;;;;;;;17.83;16.20;;;5.10;76.50;;;;;;5038487;28;20172;-87
2024/03/18 08:36:24;;;;;;;18.90;16.97;;;5.20;77.00;;;;;;5038171;28;20174;-86
2024/03/18 08:38:50;;;;;;;17.83;16.03;;;5.20;77.10;;;;;;5056072;28;20175;-87
2024/03/18 08:41:15;;;;;;;17.43;15.87;;;5.20;76.60;;;;;;5038076;28;20684;-87
2024/03/18 08:43:41;;;;;;;18.90;17.10;;;5.30;77.00;;;;;;5038298;28;20277;-86
2024/03/18 08:46:07;;;;;;;26.47;24.50;;;5.30;76.80;;;;;;5038280;28;20246;-87
2024/03/18 08:48:34;;;;;;;28.90;26.27;;;5.40;76.80;;;;;;5037868;28;20277;-87
2024/03/18 08:51:00;;;;;;;27.53;25.53;;;5.40;76.30;;;;;;5038025;28;20249;-87
2024/03/18 08:53:25;;;;;;;29.97;27.73;;;5.50;76.20;;;;;;5056004;28;20190;-86
2024/03/18 08:55:51;;;;;;;30.43;28.13;;;5.50;76.20;;;;;;5056290;28;20167;-88
2024/03/18 08:58:20;;;;;;;29.00;26.80;;;5.60;75.70;;;;;;5038826;28;20286;-87
2024/03/18 09:00:45;;;;;;;29.63;27.33;;;5.60;75.70;;;;;;5038430;28;20205;-88
2024/03/18 09:03:12;;;;;;;28.77;26.77;;;5.60;75.00;;;;;;5038490;28;20658;-87
2024/03/18 09:05:37;;;;;;;32.30;29.80;;;5.60;74.90;;;;;;5056419;28;20636;-87
2024/03/18 09:08:03;;;;;;;31.50;28.63;;;5.60;74.90;;;;;;5037886;28;20182;-86
2024/03/18 09:10:29;;;;;;;29.80;27.60;;;5.70;75.00;;;;;;5055320;28;20698;-87
2024/03/18 09:12:54;;;;;;;29.93;27.63;;;5.70;74.90;;;;;;5055004;28;20758;-87
2024/03/18 09:15:20;;;;;;;31.37;28.70;;;5.70;75.10;;;;;;5056535;28;20200;-88
2024/03/18 09:17:45;;;;;;;30.50;28.10;;;5.80;75.40;;;;;;5055978;28;20195;-87
2024/03/18 09:20:13;;;;;;;29.43;27.20;;;5.80;75.50;;;;;;5055608;28;20171;-88
2024/03/18 09:22:39;;;;;;;31.23;28.93;;;5.80;74.60;;;;;;5055484;28;20192;-85
2024/03/18 09:25:06;;;;;;;32.13;29.73;;;5.80;74.90;;;;;;5055137;28;20229;-87
2024/03/18 09:27:33;;;;;;;31.60;29.30;;;5.80;74.80;;;;;;5037097;28;20234;-87
2024/03/18 09:29:59;;;;;;;31.87;29.60;;;5.80;74.40;;;;;;5055442;28;20200;-87
2024/03/18 09:32:25;;;;;;;30.10;27.87;;;5.80;75.20;;;;;;5038012;28;20210;-87
2024/03/18 09:34:51;;;;;;;30.30;28.10;;;5.80;75.80;;;;;;5036236;28;20214;-87
2024/03/18 09:37:17;;;;;;;24.87;22.87;;;5.70;75.50;;;;;;5054732;28;20203;-87
2024/03/18 09:39:42;;;;;;;25.13;22.80;;;5.70;75.70;;;;;;5054846;28;20191;-87
2024/03/18 09:42:08;;;;;;;26.50;24.30;;;5.70;76.20;;;;;;5054734;28;20211;-86
2024/03/18 09:44:38;;;;;;;26.67;24.57;;;5.70;75.80;;;;;;5054699;28;20180;-87
2024/03/18 09:47:04;;;;;;;29.60;27.10;;;5.70;75.50;;;;;;5055104;28;20544;-86
2024/03/18 09:49:30;;;;;;;29.47;27.30;;;5.80;75.40;;;;;;5054492;28;20199;-87
2024/03/18 09:51:58;;;;;;;30.00;27.70;;;5.80;75.60;;;;;;5054495;28;20194;-86
2024/03/18 09:54:24;;;;;;;30.77;28.17;;;5.90;75.80;;;;;;5036650;28;20169;-87
2024/03/18 09:57:03;;;;;;;19.90;18.07;;;6.00;74.90;;;;;;5036486;28;20176;-85
2024/03/18 09:59:28;;;;;;;20.17;18.53;;;6.00;75.30;;;;;;5036385;28;20188;-87
2024/03/18 10:01:54;;;;;;;19.23;17.73;;;6.00;75.10;;;;;;5054415;28;20200;-87
2024/03/18 10:04:21;;;;;;;21.03;18.17;;;6.20;76.00;;;;;;5054584;28;20374;-87
2024/03/18 10:06:46;;;;;;;19.60;18.00;;;6.20;74.90;;;;;;5036401;28;20187;-87
2024/03/18 10:09:15;;;;;;;20.80;18.90;;;6.30;75.00;;;;;;5036652;28;20180;-86
2024/03/18 10:11:43;;;;;;;18.97;17.17;;;6.30;74.70;;;;;;5036126;28;20703;-86
2024/03/18 10:14:09;;;;;;;20.23;18.33;;;6.30;74.70;;;;;;5036268;28;20546;-87
2024/03/18 10:16:34;;;;;;;20.53;18.73;;;6.50;74.60;;;;;;5054212;28;20179;-87
2024/03/18 10:19:00;;;;;;;20.17;18.27;;;6.50;73.70;;;;;;5036015;28;20238;-87
2024/03/18 10:21:26;;;;;;;20.60;18.43;;;6.70;74.50;;;;;;5053983;28;20242;-87
2024/03/18 10:23:54;;;;;;;20.10;18.03;;;6.80;73.80;;;;;;5054278;28;20200;-88
2024/03/18 10:26:20;;;;;;;21.27;19.47;;;7.00;73.70;;;;;;5053964;28;20242;-86
2024/03/18 10:28:46;;;;;;;20.67;18.83;;;7.20;72.30;;;;;;5036137;28;20593;-87
2024/03/18 10:31:19;;;;;;;22.43;20.37;;;7.30;73.30;;;;;;5035888;28;20685;-87
2024/03/18 10:33:47;;;;;;;22.33;20.30;;;7.50;71.90;;;;;;5036068;28;20180;-86
2024/03/18 10:36:24;;;;;;;21.47;19.53;;;7.70;70.40;;;;;;5053941;28;20258;-88
2024/03/18 10:39:07;;;;;;;21.87;19.83;;;7.90;70.60;;;;;;5036371;28;20239;-87
2024/03/18 10:41:38;;;;;;;22.67;20.77;;;8.00;70.10;;;;;;5053924;28;20202;-89
2024/03/18 10:44:19;;;;;;;23.80;21.60;;;8.00;69.60;;;;;;5036304;28;20176;-87
2024/03/18 10:46:45;;;;;;;23.60;21.27;;;8.10;69.60;;;;;;5053704;28;20188;-87
2024/03/18 10:49:18;;;;;;;22.17;20.27;;;8.10;69.70;;;;;;5036074;28;20275;-87
2024/03/18 10:51:51;;;;;;;22.50;20.70;;;8.20;69.90;;;;;;5054099;28;20219;-87
2024/03/18 10:54:17;;;;;;;24.20;22.07;;;8.20;69.20;;;;;;5035991;28;20275;-87
2024/03/18 10:56:47;;;;;;;24.23;21.17;;;8.10;69.70;;;;;;5053864;28;20168;-87
2024/03/18 10:59:15;;;;;;;23.23;21.43;;;7.90;69.10;;;;;;5053975;28;20195;-88
2024/03/18 11:01:41;;;;;;;23.67;21.57;;;7.90;68.70;;;;;;5053470;28;20211;-86
2024/03/18 11:04:28;;;;;;;23.23;21.33;;;8.00;69.90;;;;;;5053424;28;20176;-88
2024/03/18 11:06:55;;;;;;;23.60;21.40;;;8.10;70.10;;;;;;5035446;28;20263;-87
2024/03/18 11:09:23;;;;;;;24.47;22.13;;;8.10;69.70;;;;;;5035543;28;20239;-87
2024/03/18 11:11:49;;;;;;;21.80;19.87;;;8.20;69.70;;;;;;5035230;28;20244;-88
2024/03/18 11:14:29;;;;;;;23.13;21.33;;;8.30;70.10;;;;;;5053705;28;20179;-87
2024/03/18 11:16:55;;;;;;;22.97;21.07;;;8.40;68.90;;;;;;5035507;28;20179;-87
2024/03/18 11:19:27;;;;;;;25.13;21.50;;;8.40;69.20;;;;;;5053141;28;20176;-87
2024/03/18 11:22:00;;;;;;;23.93;21.70;;;8.30;68.40;;;;;;5035336;28;20202;-88
2024/03/18 11:24:27;;;;;;;23.57;21.50;;;8.30;68.80;;;;;;5053113;28;20179;-86
2024/03/18 11:26:55;;;;;;;23.20;21.30;;;8.40;68.20;;;;;;5035225;28;20180;-88
2024/03/18 11:29:21;;;;;;;22.77;20.50;;;8.40;68.30;;;;;;5052971;28;20172;-87
2024/03/18 11:31:52;;;;;;;46.30;43.00;;;8.60;68.20;;;;;;5053163;28;20214;-88
2024/03/18 11:34:24;;;;;;;46.67;43.10;;;8.70;67.90;;;;;;5035178;28;20179;-87
2024/03/18 11:36:50;;;;;;;48.77;45.17;;;8.70;68.00;;;;;;5053487;28;20159;-89
2024/03/18 11:39:17;;;;;;;47.07;43.17;;;8.70;68.30;;;;;;5036401;28;20180;-90
2024/03/18 11:41:43;;;;;;;46.40;42.97;;;8.70;67.00;;;;;;5052514;28;20192;-88
2024/03/18 11:44:13;;;;;;;45.83;42.27;;;8.70;67.00;;;;;;5052599;28;20649;-88
2024/03/18 11:46:39;;;;;;;47.33;43.93;;;8.60;67.40;;;;;;5052592;28;20259;-87
2024/03/18 11:49:08;;;;;;;46.00;42.67;;;8.70;68.50;;;;;;5034768;28;20259;-86
2024/03/18 11:51:34;;;;;;;45.43;42.23;;;8.70;68.60;;;;;;5052337;28;20196;-87
2024/03/18 11:54:01;;;;;;;41.87;38.83;;;8.70;67.50;;;;;;5052706;28;20239;-86
2024/03/18 11:56:27;;;;;;;36.77;33.97;;;8.70;67.60;;;;;;5035001;28;20176;-86
2024/03/18 11:58:56;;;;;;;37.13;33.90;;;8.70;68.00;;;;;;5038860;28;20302;-88
2024/03/18 12:01:27;;;;;;;38.33;35.10;;;8.70;69.20;;;;;;5056851;28;20314;-87
2024/03/18 12:03:52;;;;;;;37.47;34.67;;;8.80;68.10;;;;;;5038745;28;20523;-89
2024/03/18 12:06:18;;;;;;;39.53;36.27;;;9.00;68.10;;;;;;5056448;28;20172;-87
2024/03/18 12:08:43;;;;;;;39.10;36.20;;;8.90;66.60;;;;;;5038516;28;20597;-88
2024/03/18 12:11:09;;;;;;;38.33;35.53;;;8.90;67.30;;;;;;5038661;28;20230;-88
2024/03/18 12:13:35;;;;;;;37.50;34.60;;;8.80;67.60;;;;;;5056830;28;20156;-89
2024/03/18 12:16:02;;;;;;;37.93;34.90;;;8.80;68.30;;;;;;5056077;28;20739;-88
2024/03/18 12:18:30;;;;;;;36.33;33.77;;;8.80;68.30;;;;;;5055807;28;20164;-87
2024/03/18 12:20:56;;;;;;;39.30;36.10;;;8.90;68.10;;;;;;5037841;28;20183;-87
2024/03/18 12:29:08;;;;;;;36.70;33.80;;;9.20;66.20;;;;;;5050980;28;20694;-88
2024/03/18 12:31:34;;;;;;;37.90;34.67;;;9.20;67.30;;;;;;5037657;28;20231;-86
2024/03/18 12:34:00;;;;;;;36.37;33.57;;;9.20;67.60;;;;;;5037768;28;20174;-88
2024/03/18 12:36:26;;;;;;;37.33;34.30;;;9.30;66.60;;;;;;5037784;28;20176;-87
2024/03/18 12:38:53;;;;;;;35.97;33.07;;;9.40;65.70;;;;;;5055458;28;20171;-87
2024/03/18 12:41:21;;;;;;;37.47;34.60;;;9.60;66.10;;;;;;5037469;28;20200;-87